Flight Track Log - Related Links

Times and Time Zones

All times are in EDT time to prevent confusion due to time zone crossing. See the SKW4804 flight status page for this flight to view local times or setup timezone preferences in your user account.


Time Position Orientation Groundspeed Altitude Reporting Facility
EDT Latitude Longitude Course Direction KTS MPH feet Rate Location/Type
Sat 04:58:32 PM 33.9361 -118.4317 68° East 178 205 1,600  Level Los Angeles Center
Sat 04:59:33 PM 33.9133 -118.5100 251° West 239 275 4,300 2,585 Climbing Los Angeles Center
Sat 05:00:00 PM 34.0812 -118.1532 51° Northeast  Level FlightAware Approximate
Sat 05:00:35 PM 33.8556 -118.5658 219° Southwest 292 336 6,900  Level Los Angeles Center
Sat 05:01:00 PM 34.1440 -118.0453 59° Northeast  Level FlightAware Approximate
Sat 05:01:37 PM 33.8100 -118.4861 125° Southeast 296 341 10,000  Level Los Angeles Center
Sat 05:02:00 PM 34.2007 -117.9321 59° Northeast  Level FlightAware Approximate
Sat 05:02:39 PM 33.8661 -118.4244 42° Northeast 293 337 12,000  Level Los Angeles Center
Sat 05:03:00 PM 34.2611 -117.8335 68° East  Level FlightAware Approximate
Sat 05:03:41 PM 33.9506 -118.4025 12° North 328 377 14,200  Level Los Angeles Center
Sat 05:04:43 PM 34.0056 -118.3072 55° Northeast 343 395 16,900 2,323 Climbing Los Angeles Center
Sat 05:05:45 PM 34.0597 -118.2100 56° Northeast 346 398 19,000 1,887 Climbing Los Angeles Center
Sat 05:06:47 PM 34.1172 -118.1083 56° Northeast 364 419 20,800 1,742 Climbing Los Angeles Center
Sat 05:07:49 PM 34.1783 -118.0003 56° Northeast 384 442 22,600 1,839 Climbing Los Angeles Center
Sat 05:08:51 PM 34.2400 -117.8903 56° Northeast 395 455 24,600 1,935 Climbing Los Angeles Center
Sat 05:09:53 PM 34.3150 -117.7539 56° Northeast 406 467 26,600 1,742 Climbing Los Angeles Center
Sat 05:10:55 PM 34.3814 -117.6372 55° Northeast 420 483 28,200 1,161 Climbing Los Angeles Center
Sat 05:11:57 PM 34.4475 -117.5161 56° Northeast 425 489 29,000 390 Climbing Los Angeles Center
Sat 05:12:58 PM 34.5136 -117.3967 56° Northeast 429 494 29,000  Level Los Angeles Center
Sat 05:14:00 PM 34.5781 -117.2797 56° Northeast 423 487 29,000  Level Los Angeles Center
Sat 05:15:02 PM 34.6419 -117.1628 56° Northeast 420 483 29,000  Level Los Angeles Center
Sat 05:16:04 PM 34.7186 -117.0208 57° Northeast 421 484 29,000  Level Los Angeles Center
Sat 05:17:06 PM 34.7828 -116.9033 56° Northeast 421 484 29,000 -435 Level Los Angeles Center
Sat 05:18:08 PM 34.8475 -116.7856 56° Northeast 421 484 28,100 -1,210 Descending Los Angeles Center
Sat 05:19:10 PM 34.9108 -116.6706 56° Northeast 417 480 26,500 -1,500 Descending Los Angeles Center
Sat 05:20:12 PM 34.9728 -116.5600 56° Northeast 405 466 25,000 -1,210 Descending Los Angeles Center
Sat 05:21:14 PM 35.0483 -116.4692 45° Northeast 385 443 24,000 -484 Descending Los Angeles Center
Sat 05:22:16 PM 35.1356 -116.3597 46° Northeast 379 436 24,000  Level Los Angeles Center
Sat 05:23:18 PM 35.2069 -116.2694 46° Northeast 373 429 24,000  Level Los Angeles Center
Sat 05:24:20 PM 35.2792 -116.1792 46° Northeast 372 428 24,000 -629 Level Los Angeles Center
Sat 05:25:22 PM 35.3508 -116.0878 46° Northeast 372 428 22,700 -1,984 Descending Los Angeles Center
Sat 05:26:24 PM 35.4269 -115.9931 45° Northeast 387 445 19,900 -2,878 Descending Los Angeles Center
Sat 05:27:25 PM 35.5133 -115.8833 46° Northeast 392 451 16,800 -3,000 Descending Los Angeles Center
Sat 05:28:08 PM 35.5683 -115.8178 44° Northeast 393 452 14,700 -2,516 Descending Los Angeles Center
Sat 05:28:27 PM 35.5886 -115.7878 50° Northeast 391 450 14,200 -1,745 Descending Los Angeles Center
Sat 05:29:03 PM 35.6325 -115.7339 45° Northeast 369 425 13,100 -1,161 Descending Los Angeles Center
Sat 05:29:29 PM 35.6569 -115.7022 46° Northeast 364 419 13,000 -98 Descending Los Angeles Center
Sat 05:30:04 PM 35.6989 -115.6517 44° Northeast 315 362 13,000  Level Los Angeles Center
Sat 05:30:31 PM 35.7158 -115.6275 49° Northeast 317 365 13,000  Level Los Angeles Center
Sat 05:31:05 PM 35.7594 -115.5819 40° Northeast 305 351 13,000  Level Los Angeles Center
Sat 05:31:33 PM 35.7978 -115.5731 11° North 295 339 13,000  Level Los Angeles Center
Sat 05:32:06 PM 35.8414 -115.5714 North 298 343 13,000  Level Los Angeles Center
Sat 05:32:35 PM 35.8800 -115.5675 North 294 338 13,000  Level Los Angeles Center
Sat 05:33:06 PM 35.9269 -115.5675 360° North 295 339 13,000 -194 Level Los Angeles Center
Sat 05:33:37 PM 35.9625 -115.5539 17° North 296 341 12,800 -1,179 Descending Los Angeles Center
Sat 05:34:02 PM 35.9836 -115.5200 52° Northeast 311 358 11,900 -1,645 Descending Los Angeles Center
Sat 05:34:39 PM 36.0017 -115.4650 68° East 299 344 11,100 -818 Descending Los Angeles Center
Sat 05:35:08 PM 36.0169 -115.4136 70° East 295 339 11,000 -194 Descending Los Angeles Center
Sat 05:35:41 PM 36.0278 -115.3728 72° East 290 334 10,900 -1,279 Descending Los Angeles Center
Sat 05:36:09 PM 36.0264 -115.3175 92° East 283 326 9,700 -1,548 Descending Los Angeles Center
Sat 05:36:43 PM 36.0225 -115.2786 97° East 276 318 9,300 -764 Descending Los Angeles Center
Sat 05:37:04 PM 36.0208 -115.2317 92° East 274 315 9,000 -590 Descending Los Angeles Center
Sat 05:37:44 PM 36.0147 -115.1689 97° East 270 311 8,700 -716 Descending Los Angeles Center
Sat 05:38:11 PM 36.0125 -115.1333 94° East 258 297 8,200 -677 Descending Los Angeles Center
Sat 05:38:46 PM 36.0086 -115.0831 95° East 258 297 8,000 -273 Descending Los Angeles Center
Sat 05:39:17 PM 36.0081 -115.0444 91° East 217 250 7,900 -581 Descending Los Angeles Center
Sat 05:39:48 PM 36.0039 -115.0111 99° East 224 258 7,400 -1,180 Descending Los Angeles Center
Sat 05:40:18 PM 36.0036 -114.9742 91° East 210 242 6,700 -1,161 Descending Los Angeles Center
Sat 05:40:50 PM 36.0011 -114.9419 95° East 212 244 6,200 -764 Descending Los Angeles Center
Sat 05:41:13 PM 36.0011 -114.9136 90° East 204 235 6,000 -194 Descending Los Angeles Center
Sat 05:41:52 PM 36.0242 -114.8969 30° Northeast 213 245 6,000 -197 Level Los Angeles Center
Sat 05:42:14 PM 36.0397 -114.9222 307° West 193 222 5,800 -545 Descending Los Angeles Center

Login

Don't have an account? Register now (free) for customized features, flight alerts, and more!